Terminal Aerodrome Forecast
Issued by NWS Quad Cities IA IL

Home | Current Version | Previous Version | Text Only | Print | Product List | Glossary On
Versions: 1 2 3 4 5 6 7 8 9 10 11 12 13 14 15 16 17 18 19 20 21 22 23 24 25 26 27 28 29 30 31 32 33 34 35 36
960
FTUS43 KDVN 192322
TAFDBQ
TAF
KDBQ 192322Z 2000/2024 12009KT 2SM -RA BR OVC045
      TEMPO 2000/2004 1SM -RADZ BKN003 OVC020
     FM200500 10004KT 1SM -RADZ BR OVC004
     FM200900 10004KT 1/4SM -DZ FG OVC001
     FM201600 12005KT 1SM BR OVC005=

USA.gov is the U.S. government's official web portal to all federal, state and local government web resources and services.